首页
METAR-TAF:

METAR-TAF

机场 :

汤加塔布岛, 汤加

努瓜婁發國際機場

纬度: 21-14S, 经度: 175-09W, 海拔: 38米

当前天气观测

该预报发布于18分钟前的13:00 UTC
静风
温度 24°C
湿度 94%
气压 1014 hPa
能見度: 1000
少量云层高于1700英尺

METAR: NFTF 171300Z 00000KT 1000 FG FEW017 24/23 Q1014 RMK FOG TO N OF AERODROME

时间: 03:18 (13:18 UTC)

预报

该预报发布于1小时和55分钟前的11:23 UTC
预报有效从17日的 12点(UTC)到 18日的 12点(UTC)
风速3节,风向多变
能見度: 1000
散云层高于800英尺
从 17日的 1300点(UTC)
风速3节,风向多变
能见度10公里或以上
少量云层高于800英尺
散云层高于1800英尺
多云层高于10000英尺
小阵雨
从 17日的 1500点(UTC)
风速3节,风向多变
散云层高于800英尺
从 17日的 1900点(UTC)
风速3节,风向多变
能见度10公里或以上
少量云层高于800英尺
散云层高于1800英尺
多云层高于10000英尺
小阵雨

TAF: NFTF 171123Z 1712/1812 VRB03KT 1000 FG SCT008 FM171300 VRB03KT 9999 -SHRA FEW008 SCT018 BKN100 FM171500 VRB03KT 800 FG SCT008 FM171900 VRB03KT 9999 -SHRA FEW008 SCT018 BKN100

超过4000个机场的气象观测和天气预报(METAR&TAF报告)。

可查询的气象台以黄色和红色小点在地图上表示。

将鼠标移到小点上方,可查看气象台名称。

然后点击查看天气观测和预报。

如需切换地图:点击带黑十字的绿色按钮放大地图;点击带横线的绿色按钮缩小地图;或者点击绿色箭头查看邻近地区的地图。


METAR-TAF: